Time;durP1;ratioP1;P1;durP2;ratioP2;P2;SDS_P1;SDS_P2;PMS_P1;PMS_P2;Temp;Humidity;BMP_temperature;BMP_pressure;BME280_temperature;BME280_humidity;BME280_pressure;Samples;Min_cycle;Max_cycle;Signal;HPM_P1;HPM_P2
2021/04/21 00:00:25;;;;;;;6.67;3.77;;;;;;;5.85;78.57;95448.13;1761679;81;21152;-62
2021/04/21 00:02:55;;;;;;;4.92;3.50;;;;;;;5.84;78.39;95446.38;1762074;81;21118;-62
2021/04/21 00:05:25;;;;;;;6.60;4.73;;;;;;;5.88;78.13;95445.08;1761858;81;21298;-62
2021/04/21 00:07:55;;;;;;;8.03;4.93;;;;;;;5.88;77.83;95451.18;1761849;81;21263;-62
2021/04/21 00:10:24;;;;;;;3.90;2.67;;;;;;;5.88;77.80;95451.18;1762031;81;21282;-62
2021/04/21 00:12:54;;;;;;;3.87;2.83;;;;;;;5.89;77.96;95452.05;1761919;81;21160;-62
2021/04/21 00:15:24;;;;;;;5.10;3.10;;;;;;;5.83;78.24;95454.25;1761913;81;22050;-62
2021/04/21 00:18:02;;;;;;;3.03;2.10;;;;;;;5.74;78.61;95451.64;1761968;81;21296;-62
2021/04/21 00:20:34;;;;;;;10.23;6.30;;;;;;;5.69;78.04;95454.27;1761547;81;21310;-62
2021/04/21 00:23:07;;;;;;;11.33;6.13;;;;;;;5.75;77.78;95447.73;1761946;81;21746;-62
2021/04/21 00:25:37;;;;;;;12.70;6.05;;;;;;;5.81;77.63;95445.52;1762119;81;21693;-62
2021/04/21 00:28:07;;;;;;;15.33;7.97;;;;;;;5.86;77.63;95443.77;1762055;81;21148;-62
2021/04/21 00:30:36;;;;;;;7.13;4.20;;;;;;;5.88;77.38;95443.33;1761844;81;21263;-62
2021/04/21 00:33:06;;;;;;;11.07;5.70;;;;;;;5.91;77.75;95441.13;1762228;81;21153;-62
2021/04/21 00:35:40;;;;;;;10.97;5.77;;;;;;;5.96;77.74;95445.95;1734178;81;21109;-62
2021/04/21 00:38:13;;;;;;;10.33;6.00;;;;;;;5.96;77.65;95447.27;1761701;81;21129;-62
2021/04/21 00:40:57;;;;;;;8.80;5.60;;;;;;;5.92;77.79;95441.14;1761925;81;21164;-62
2021/04/21 00:43:33;;;;;;;7.67;4.37;;;;;;;5.94;77.93;95442.46;1761918;81;21689;-62
2021/04/21 00:46:25;;;;;;;7.03;4.83;;;;;;;5.95;77.68;95438.54;1761894;81;21133;-62
2021/04/21 00:49:13;;;;;;;7.10;4.90;;;;;;;6.06;77.43;95437.19;1761944;81;21282;-62
2021/04/21 00:51:52;;;;;;;7.47;4.87;;;;;;;6.11;76.92;95430.63;1762271;81;21124;-62
2021/04/21 00:54:53;;;;;;;6.07;4.30;;;;;;;6.13;76.27;95434.98;1761427;81;21132;-62
2021/04/21 00:57:39;;;;;;;6.57;4.07;;;;;;;6.16;76.40;95433.66;1760970;81;21282;-62
2021/04/21 01:00:12;;;;;;;5.83;3.97;;;;;;;6.16;76.29;95433.66;1761925;81;21282;-62
2021/04/21 01:03:12;;;;;;;5.83;3.87;;;;;;;6.16;75.57;95433.66;1760194;81;21148;-62
2021/04/21 01:05:54;;;;;;;8.03;5.20;;;;;;;6.11;75.40;95441.10;1762022;81;21137;-62
2021/04/21 01:08:30;;;;;;;7.20;4.67;;;;;;;6.06;75.29;95445.05;1762299;81;21141;-62
2021/04/21 01:11:26;;;;;;;6.10;3.73;;;;;;;6.01;75.27;95446.36;1762190;81;21117;-62
2021/04/21 01:14:05;;;;;;;5.87;3.70;;;;;;;6.00;75.67;95451.63;1762048;81;21148;-62
2021/04/21 01:16:35;;;;;;;5.27;3.63;;;;;;;5.94;76.43;95443.77;1761847;81;21746;-62
2021/04/21 01:19:19;;;;;;;4.17;3.13;;;;;;;5.84;76.92;95442.45;1761976;81;21279;-62
2021/04/21 01:21:51;;;;;;;5.27;3.80;;;;;;;5.80;76.86;95454.27;1745001;81;21168;-62
2021/04/21 01:24:57;;;;;;;3.10;2.33;;;;;;;5.71;77.57;95445.98;1761725;81;21263;-62
2021/04/21 01:27:45;;;;;;;3.87;2.90;;;;;;;5.69;77.12;95454.27;1762068;81;21145;-62
2021/04/21 01:30:22;;;;;;;4.97;2.90;;;;;;;5.67;77.74;95445.98;1738240;81;21207;-62
2021/04/21 01:32:55;;;;;;;3.83;2.10;;;;;;;5.62;77.48;95446.02;1754355;82;21596;-62
2021/04/21 01:35:24;;;;;;;5.03;3.30;;;;;;;5.54;77.58;95439.45;1754224;82;21154;-62
2021/04/21 01:37:57;;;;;;;4.07;3.23;;;;;;;5.46;78.52;95447.77;1754499;82;21278;-62
2021/04/21 01:40:34;;;;;;;9.47;3.20;;;;;;;5.42;78.99;95450.83;1754513;81;21575;-62
2021/04/21 01:43:10;;;;;;;4.00;2.93;;;;;;;5.40;78.97;95442.11;1754201;81;21141;-62
2021/04/21 01:45:40;;;;;;;4.93;3.00;;;;;;;5.43;78.57;95449.08;1754202;82;21138;-62
2021/04/21 01:48:16;;;;;;;4.73;3.17;;;;;;;5.45;78.83;95442.11;1754286;81;21106;-62
2021/04/21 01:50:44;;;;;;;7.50;3.73;;;;;;;5.43;78.65;95439.92;1753568;82;21121;-62
2021/04/21 01:53:35;;;;;;;5.13;3.27;;;;;;;5.48;78.83;95439.92;1754478;82;21148;-62
2021/04/21 01:56:35;;;;;;;6.43;4.17;;;;;;;5.47;78.85;95442.09;1754191;82;21094;-62
2021/04/21 01:59:35;;;;;;;8.07;3.33;;;;;;;5.51;78.90;95438.60;1754199;82;21543;-62
2021/04/21 02:02:25;;;;;;;5.40;3.70;;;;;;;5.55;78.90;95442.52;1721565;82;21146;-62
2021/04/21 02:05:31;;;;;;;7.13;3.77;;;;;;;5.62;78.75;95441.64;1754168;82;21106;-62
2021/04/21 02:08:11;;;;;;;7.40;3.90;;;;;;;5.56;78.66;95443.39;1754374;82;21150;-62
2021/04/21 02:11:17;;;;;;;5.87;4.37;;;;;;;5.59;78.76;95444.69;1754214;81;21138;-62
2021/04/21 02:14:03;;;;;;;23.50;9.07;;;;;;;5.63;78.68;95447.30;1754121;81;21149;-62
2021/04/21 02:16:48;;;;;;;17.57;8.00;;;;;;;5.57;78.66;95449.08;1754282;82;21125;-62
2021/04/21 02:19:46;;;;;;;17.23;8.03;;;;;;;5.60;78.91;95454.30;1754088;81;21547;-62
2021/04/21 02:23:00;;;;;;;9.40;6.03;;;;;;;5.62;78.82;95454.73;1754164;81;21133;-62
2021/04/21 02:25:41;;;;;;;8.93;4.55;;;;;;;5.63;78.50;95455.16;1698765;84;21171;-62
2021/04/21 02:28:32;;;;;;;13.37;6.00;;;;;;;5.60;78.58;95452.99;1746138;82;21141;-62
2021/04/21 02:31:29;;;;;;;8.00;4.43;;;;;;;5.59;79.01;95448.61;1727540;82;21134;-62
2021/04/21 02:34:22;;;;;;;7.53;4.77;;;;;;;5.55;79.31;95459.54;1740171;82;21251;-62
2021/04/21 02:37:01;;;;;;;9.40;4.23;;;;;;;5.44;79.23;95459.97;1733569;82;21119;-62
2021/04/21 02:39:40;;;;;;;10.10;4.53;;;;;;;5.40;79.26;95459.56;1739306;82;21691;-63
2021/04/21 02:42:41;;;;;;;9.20;4.50;;;;;;;5.35;79.33;95456.94;1740207;81;21264;-62
2021/04/21 02:45:29;;;;;;;13.20;5.73;;;;;;;5.33;78.96;95458.67;1740531;82;21123;-62
2021/04/21 02:48:17;;;;;;;10.07;5.27;;;;;;;5.31;79.01;95456.48;1740047;81;21272;-62
2021/04/21 02:51:17;;;;;;;7.10;4.90;;;;;;;5.21;78.71;95454.75;1736512;82;21718;-62
2021/04/21 02:53:58;;;;;;;10.60;5.63;;;;;;;5.20;79.70;95460.87;1736774;82;21288;-62
2021/04/21 02:56:43;;;;;;;7.87;4.93;;;;;;;5.25;79.26;95451.72;1740075;81;21165;-62
2021/04/21 03:00:05;;;;;;;8.13;4.90;;;;;;;5.23;79.61;95458.69;1721030;82;21137;-62
2021/04/21 03:02:47;;;;;;;6.83;4.73;;;;;;;5.29;79.57;95451.73;1740065;81;21299;-62
2021/04/21 03:05:26;;;;;;;5.60;3.97;;;;;;;5.34;79.33;95456.92;1740017;82;21130;-62
2021/04/21 03:08:08;;;;;;;6.87;4.30;;;;;;;5.33;79.30;95456.06;1719554;82;21162;-62
2021/04/21 03:10:50;;;;;;;7.50;4.33;;;;;;;5.34;79.28;95463.47;1740271;82;21561;-62
2021/04/21 03:13:31;;;;;;;8.53;4.50;;;;;;;5.34;79.12;95460.44;1740191;82;21671;-62
2021/04/21 03:16:04;;;;;;;6.53;3.70;;;;;;;5.29;79.34;95465.22;1740060;82;21537;-62
2021/04/21 03:18:33;;;;;;;7.22;4.70;;;;;;;5.32;79.52;95470.03;1740021;82;21303;-62
2021/04/21 03:21:18;;;;;;;7.53;3.87;;;;;;;5.31;79.56;95467.40;1740077;82;21609;-62
2021/04/21 03:23:48;;;;;;;6.57;4.30;;;;;;;5.39;79.66;95473.08;1740094;82;21690;-62
2021/04/21 03:26:19;;;;;;;7.13;4.30;;;;;;;5.39;79.48;95468.26;1740115;82;21295;-62
2021/04/21 03:28:52;;;;;;;6.80;3.90;;;;;;;5.36;79.69;95474.81;1740078;81;21308;-62
2021/04/21 03:31:22;;;;;;;8.20;4.10;;;;;;;5.40;80.08;95480.05;1752979;81;21161;-62
2021/04/21 03:33:58;;;;;;;16.27;8.67;;;;;;;5.27;79.65;95476.14;1754182;82;21791;-62
2021/04/21 03:36:27;;;;;;;8.20;5.03;;;;;;;5.18;79.39;95486.15;1754211;82;21121;-62
2021/04/21 03:38:56;;;;;;;13.23;8.47;;;;;;;5.15;80.32;95488.33;1754207;82;21133;-62
2021/04/21 03:41:23;;;;;;;8.63;5.93;;;;;;;5.18;79.81;95486.15;1754294;82;21579;-62
2021/04/21 03:43:52;;;;;;;7.53;4.67;;;;;;;5.17;79.76;95489.65;1754015;81;21602;-62
2021/04/21 03:46:21;;;;;;;8.20;4.67;;;;;;;5.11;80.27;95494.41;1754112;82;21162;-62
2021/04/21 03:48:50;;;;;;;8.40;6.03;;;;;;;5.05;79.89;95495.73;1726442;82;21591;-62
2021/04/21 03:51:21;;;;;;;8.57;5.70;;;;;;;5.02;79.84;95493.12;1753924;82;21153;-62
2021/04/21 03:53:52;;;;;;;10.80;6.07;;;;;;;5.06;80.37;95505.30;1754113;82;21114;-62
2021/04/21 03:56:26;;;;;;;12.03;6.53;;;;;;;5.04;80.44;95506.17;1754089;82;21135;-62
2021/04/21 03:58:55;;;;;;;7.70;4.35;;;;;;;5.01;80.65;95504.87;1754320;82;21166;-62
2021/04/21 04:01:26;;;;;;;14.43;7.23;;;;;;;5.04;80.00;95504.46;1754077;81;21161;-62
2021/04/21 04:03:58;;;;;;;12.07;8.20;;;;;;;5.11;79.95;95509.24;1754362;82;21124;-62
2021/04/21 04:06:42;;;;;;;13.17;6.47;;;;;;;5.12;80.28;95507.08;1754219;81;21547;-62
2021/04/21 04:09:12;;;;;;;11.67;6.60;;;;;;;5.15;80.78;95510.56;1754423;81;21130;-62
2021/04/21 04:11:53;;;;;;;16.13;9.83;;;;;;;5.20;81.28;95502.72;1754014;82;21161;-62
2021/04/21 04:14:27;;;;;;;25.63;13.40;;;;;;;5.28;80.94;95515.80;1754234;82;21149;-62
2021/04/21 04:16:59;;;;;;;25.23;12.50;;;;;;;5.35;80.52;95504.48;1754091;82;21114;-62
2021/04/21 04:19:30;;;;;;;29.00;13.63;;;;;;;5.42;80.04;95511.02;1753985;82;21141;-62
2021/04/21 04:22:07;;;;;;;27.77;13.93;;;;;;;5.53;79.85;95509.69;1753973;82;21146;-62
2021/04/21 04:24:46;;;;;;;24.77;12.03;;;;;;;5.59;79.28;95516.66;1754599;82;21264;-62
2021/04/21 04:27:24;;;;;;;26.07;13.27;;;;;;;5.71;79.06;95515.80;1754117;82;21129;-62
2021/04/21 04:29:53;;;;;;;20.33;9.47;;;;;;;5.91;79.10;95506.60;1754213;81;21635;-62
2021/04/21 04:32:24;;;;;;;17.40;8.80;;;;;;;6.04;78.80;95518.81;1753996;81;21525;-62
2021/04/21 04:34:56;;;;;;;12.60;7.53;;;;;;;6.16;78.69;95517.92;1754080;82;21094;-62
2021/04/21 04:37:27;;;;;;;13.63;7.20;;;;;;;6.11;78.30;95523.17;1754113;82;21130;-62
2021/04/21 04:39:55;;;;;;;8.47;5.67;;;;;;;6.19;78.51;95521.84;1754121;82;21130;-62
2021/04/21 04:42:23;;;;;;;10.37;6.40;;;;;;;6.19;77.89;95522.70;1754338;81;21594;-62
2021/04/21 04:44:51;;;;;;;9.83;6.37;;;;;;;6.22;77.87;95532.30;1754502;82;21570;-62
2021/04/21 04:47:45;;;;;;;10.17;6.00;;;;;;;6.31;78.10;95532.29;1754260;82;21172;-62
2021/04/21 04:50:16;;;;;;;13.88;9.30;;;;;;;6.33;77.99;95529.23;1754790;81;21290;-62
2021/04/21 04:52:52;;;;;;;17.70;9.33;;;;;;;6.36;77.46;95530.97;1754171;82;21133;-62
2021/04/21 04:55:23;;;;;;;16.37;8.07;;;;;;;6.36;77.45;95540.14;1753695;82;21140;-62
2021/04/21 04:57:54;;;;;;;12.77;7.17;;;;;;;6.41;77.59;95537.06;1754847;82;21651;-62
2021/04/21 05:00:27;;;;;;;6.97;3.93;;;;;;;6.49;77.58;95539.21;1754188;82;21595;-62
2021/04/21 05:03:24;;;;;;;8.13;4.73;;;;;;;6.58;77.44;95540.50;1754420;81;21145;-62
2021/04/21 05:05:55;;;;;;;8.87;4.63;;;;;;;6.64;76.09;95544.84;1754287;82;21543;-62
2021/04/21 05:08:49;;;;;;;12.00;5.17;;;;;;;6.66;75.69;95545.71;1754149;82;21140;-62
2021/04/21 05:11:18;;;;;;;7.85;3.58;;;;;;;6.70;75.66;95547.00;1754257;82;21134;-62
2021/04/21 05:13:49;;;;;;;10.53;5.80;;;;;;;6.71;75.00;95551.80;1754239;82;21583;-62
2021/04/21 05:16:40;;;;;;;6.90;4.93;;;;;;;6.74;74.99;95552.23;1754430;82;21129;-62
2021/04/21 05:19:30;;;;;;;6.37;3.87;;;;;;;6.78;73.90;95550.00;1736077;82;21579;-62
2021/04/21 05:22:19;;;;;;;3.93;3.23;;;;;;;6.82;73.92;95555.23;1754059;82;21555;-62
2021/04/21 05:25:26;;;;;;;4.83;2.90;;;;;;;6.88;74.50;95554.36;1754316;82;21113;-62
2021/04/21 05:28:18;;;;;;;2.77;2.30;;;;;;;6.92;74.13;95558.24;1754073;82;21619;-62
2021/04/21 05:31:14;;;;;;;3.50;2.17;;;;;;;6.93;73.18;95559.14;1748111;81;21153;-62
2021/04/21 05:34:16;;;;;;;3.50;2.70;;;;;;;7.02;73.64;95565.63;1740236;82;21249;-62
2021/04/21 05:37:12;;;;;;;3.60;2.73;;;;;;;7.07;72.42;95567.79;1740306;82;21122;-62
2021/04/21 05:40:27;;;;;;;3.83;2.90;;;;;;;7.14;73.13;95569.95;1722119;82;21125;-62
2021/04/21 05:43:17;;;;;;;3.67;3.15;;;;;;;7.25;73.43;95567.25;1740197;81;21679;-62
2021/04/21 05:45:59;;;;;;;4.27;3.40;;;;;;;7.41;73.25;95568.91;1740460;82;21098;-62
2021/04/21 05:48:56;;;;;;;11.33;5.93;;;;;;;7.46;70.80;95570.17;1740167;82;21260;-62
2021/04/21 05:52:14;;;;;;;20.00;11.00;;;;;;;7.48;71.67;95569.27;1740079;81;21296;-62
2021/04/21 05:55:14;;;;;;;10.67;7.77;;;;;;;7.55;72.01;95570.98;1740410;82;21683;-62
2021/04/21 05:58:16;;;;;;;6.60;4.57;;;;;;;7.67;72.13;95570.03;1739578;82;21283;-62
2021/04/21 06:01:19;;;;;;;11.53;7.40;;;;;;;7.81;72.24;95567.27;1740419;82;21157;-62
2021/04/21 06:03:50;;;;;;;31.33;16.03;;;;;;;7.92;70.68;95561.95;1740084;82;21260;-62
2021/04/21 06:06:18;;;;;;;51.97;26.93;;;;;;;8.12;70.51;95560.45;1740088;81;21146;-62
2021/04/21 06:08:45;;;;;;;49.53;27.20;;;;;;;8.30;68.99;95564.20;1740442;82;21138;-62
2021/04/21 06:11:25;;;;;;;19.13;11.90;;;;;;;8.40;68.42;95563.25;1740131;82;21154;-62
2021/04/21 06:13:57;;;;;;;9.40;5.93;;;;;;;8.49;67.83;95562.72;1740192;82;21106;-62
2021/04/21 06:16:27;;;;;;;5.10;3.53;;;;;;;8.75;68.50;95559.81;1740279;82;21129;-62
2021/04/21 06:19:02;;;;;;;5.43;3.07;;;;;;;8.99;66.89;95555.98;1740270;82;21276;-62
2021/04/21 06:21:37;;;;;;;5.90;4.30;;;;;;;9.20;66.04;95558.80;1740037;82;21142;-62
2021/04/21 06:24:24;;;;;;;4.20;3.07;;;;;;;9.47;66.00;95555.73;1740116;82;21271;-62
2021/04/21 06:27:07;;;;;;;3.43;2.17;;;;;;;9.74;64.81;95553.59;1740154;82;21281;-62
2021/04/21 06:29:37;;;;;;;2.60;2.40;;;;;;;9.93;61.72;95546.27;1740153;82;21134;-62
2021/04/21 06:32:13;;;;;;;2.60;2.40;;;;;;;10.09;60.49;95546.86;1752069;82;21129;-62
2021/04/21 06:34:41;;;;;;;2.30;2.07;;;;;;;10.17;60.64;95547.13;1754294;82;21556;-62
2021/04/21 06:37:09;;;;;;;3.50;2.50;;;;;;;10.26;56.47;95545.25;1754252;82;21161;-62
2021/04/21 06:39:37;;;;;;;3.33;2.20;;;;;;;10.31;58.25;95553.98;1754086;81;21168;-62
2021/04/21 06:42:07;;;;;;;9.67;5.20;;;;;;;10.35;56.31;95547.28;1754283;82;21118;-62
2021/04/21 06:44:45;;;;;;;11.83;5.87;;;;;;;10.32;57.47;95548.66;1754527;82;21157;-62
2021/04/21 06:47:25;;;;;;;3.53;3.00;;;;;;;10.40;56.48;95545.88;1754162;82;21567;-62
2021/04/21 06:50:10;;;;;;;4.43;4.00;;;;;;;10.28;55.21;95550.95;1754315;82;21134;-62
2021/04/21 06:52:46;;;;;;;7.93;6.67;;;;;;;10.40;56.93;95549.37;1754042;82;21132;-62
2021/04/21 06:55:17;;;;;;;4.03;3.25;;;;;;;10.39;55.49;95546.33;1753723;82;21544;-62
2021/04/21 06:57:45;;;;;;;5.07;4.20;;;;;;;10.24;55.04;95554.50;1754357;82;21129;-62
2021/04/21 07:00:18;;;;;;;4.27;3.23;;;;;;;10.03;55.28;95557.07;1754003;82;21138;-62
2021/04/21 07:02:50;;;;;;;7.27;6.33;;;;;;;9.92;55.48;95556.36;1754169;82;21121;-62
2021/04/21 07:05:30;;;;;;;3.87;3.47;;;;;;;9.93;56.63;95555.48;1753990;82;21619;-62
2021/04/21 07:08:11;;;;;;;4.37;3.10;;;;;;;10.00;56.77;95553.59;1753922;82;21562;-62
2021/04/21 07:10:53;;;;;;;3.77;2.77;;;;;;;10.03;57.09;95560.13;1754236;82;21121;-62
2021/04/21 07:13:27;;;;;;;4.03;3.47;;;;;;;10.05;54.52;95561.84;1754134;82;21548;-62
2021/04/21 07:16:08;;;;;;;2.27;1.97;;;;;;;10.12;56.68;95564.80;1754223;82;21555;-62
2021/04/21 07:18:38;;;;;;;3.53;3.23;;;;;;;10.16;55.12;95571.77;1754236;81;21121;-62
2021/04/21 07:21:08;;;;;;;4.70;3.37;;;;;;;10.10;56.39;95567.91;1754136;82;21181;-62
2021/04/21 07:23:48;;;;;;;5.10;4.03;;;;;;;10.11;56.20;95568.80;1754042;82;21141;-62
2021/04/21 07:26:17;;;;;;;4.80;3.67;;;;;;;10.03;57.55;95571.56;1754343;82;21532;-62
2021/04/21 07:28:46;;;;;;;3.77;3.23;;;;;;;9.96;57.78;95570.79;1754018;81;21589;-62
2021/04/21 07:31:17;;;;;;;5.63;3.40;;;;;;;9.96;58.02;95570.79;1748721;81;21177;-62
2021/04/21 07:33:49;;;;;;;4.90;3.83;;;;;;;10.00;59.42;95565.00;1740383;82;21304;-62
2021/04/21 07:36:20;;;;;;;5.60;4.20;;;;;;;10.23;59.97;95569.91;1740208;82;21280;-62
2021/04/21 07:38:54;;;;;;;5.43;4.27;;;;;;;10.54;59.73;95565.42;1740016;82;21134;-62
2021/04/21 07:41:41;;;;;;;5.63;4.10;;;;;;;10.82;58.64;95574.53;1740241;82;21295;-62
2021/04/21 07:44:37;;;;;;;4.73;4.20;;;;;;;11.12;59.01;95576.12;1740187;82;21691;-62
2021/04/21 07:47:11;;;;;;;6.33;4.70;;;;;;;11.16;55.91;95576.50;1696445;83;21140;-62
2021/04/21 07:49:46;;;;;;;4.93;4.43;;;;;;;10.97;56.12;95581.73;1731933;82;21584;-63
2021/04/21 07:52:26;;;;;;;5.00;4.10;;;;;;;10.93;55.97;95577.41;1739978;82;21122;-62
2021/04/21 07:55:19;;;;;;;5.27;4.23;;;;;;;10.78;56.64;95587.36;1740094;82;21299;-62
2021/04/21 07:58:01;;;;;;;5.40;3.70;;;;;;;10.82;56.63;95585.55;1740082;81;21295;-62
2021/04/21 08:00:32;;;;;;;6.27;4.53;;;;;;;10.86;58.27;95580.64;1740067;82;21299;-62
2021/04/21 08:03:00;;;;;;;7.10;5.73;;;;;;;10.97;58.14;95585.69;1739954;82;21268;-62
2021/04/21 08:05:28;;;;;;;6.10;4.60;;;;;;;11.01;57.26;95587.34;1740482;82;21163;-62
2021/04/21 08:08:01;;;;;;;4.70;4.23;;;;;;;11.09;56.93;95581.48;1739943;82;21284;-62
2021/04/21 08:10:36;;;;;;;5.37;4.22;;;;;;;11.48;54.78;95578.41;1740224;82;21260;-62
2021/04/21 08:13:07;;;;;;;5.97;4.00;;;;;;;11.92;55.91;95567.77;1740081;82;21268;-62
2021/04/21 08:15:39;;;;;;;7.47;4.40;;;;;;;12.12;53.82;95573.43;1740106;82;21161;-62
2021/04/21 08:18:14;;;;;;;6.03;5.33;;;;;;;11.79;51.01;95571.13;1740428;82;21264;-62
2021/04/21 08:20:51;;;;;;;7.90;5.27;;;;;;;11.79;51.01;95571.13;1740221;82;21617;-62
2021/04/21 08:23:22;;;;;;;6.97;5.20;;;;;;;11.72;53.41;95574.81;1737502;82;21094;-62
2021/04/21 08:25:51;;;;;;;5.30;4.47;;;;;;;11.69;52.82;95574.44;1740093;82;21280;-62
2021/04/21 08:28:21;;;;;;;6.77;4.27;;;;;;;11.66;50.27;95576.26;1740050;82;21591;-62
2021/04/21 08:30:58;;;;;;;5.23;4.47;;;;;;;11.63;51.12;95580.30;1740027;82;21150;-62
2021/04/21 08:33:28;;;;;;;5.37;4.50;;;;;;;11.67;51.55;95574.05;1740180;82;21272;-62
2021/04/21 08:35:56;;;;;;;5.13;4.20;;;;;;;11.71;51.38;95573.05;1740105;82;21603;-62
2021/04/21 08:38:25;;;;;;;7.17;4.60;;;;;;;11.82;50.89;95564.90;1739910;82;21268;-62
2021/04/21 08:40:53;;;;;;;8.27;5.60;;;;;;;11.88;51.47;95567.41;1740380;82;21157;-62
2021/04/21 08:43:21;;;;;;;6.83;5.63;;;;;;;12.00;51.99;95561.83;1740117;82;21706;-62
2021/04/21 08:45:52;;;;;;;7.20;4.93;;;;;;;12.12;55.20;95564.17;1740403;82;21129;-62
2021/04/21 08:48:20;;;;;;;6.73;5.13;;;;;;;12.06;52.45;95566.09;1740130;82;21565;-62
2021/04/21 08:50:48;;;;;;;5.40;4.20;;;;;;;11.86;52.95;95571.41;1740077;82;21128;-62
2021/04/21 08:53:17;;;;;;;8.03;5.20;;;;;;;11.63;55.01;95590.88;1719297;82;21122;-62
2021/04/21 08:55:45;;;;;;;5.60;3.97;;;;;;;11.52;54.47;95604.34;1740212;82;21284;-62
2021/04/21 08:58:13;;;;;;;6.20;4.10;;;;;;;11.08;53.59;95602.63;1740211;82;21494;-62
2021/04/21 09:00:42;;;;;;;3.77;3.37;;;;;;;10.77;52.61;95599.28;1739961;82;21169;-62
2021/04/21 09:03:10;;;;;;;4.00;3.63;;;;;;;10.47;53.99;95604.68;1740046;82;21275;-62
2021/04/21 09:05:38;;;;;;;4.80;3.50;;;;;;;10.33;55.57;95608.44;1739929;82;21126;-62
2021/04/21 09:08:09;;;;;;;4.67;4.07;;;;;;;10.24;55.98;95606.38;1740336;82;21276;-62
2021/04/21 09:10:37;;;;;;;2.63;2.23;;;;;;;10.14;56.87;95611.78;1740236;82;21256;-62
2021/04/21 09:13:05;;;;;;;5.27;3.70;;;;;;;10.02;57.00;95605.84;1740099;82;21717;-62
2021/04/21 09:15:33;;;;;;;3.07;2.77;;;;;;;9.90;57.27;95620.98;1740151;82;21295;-62
2021/04/21 09:18:02;;;;;;;4.07;3.03;;;;;;;9.88;56.26;95605.63;1740220;81;21284;-62
2021/04/21 09:20:30;;;;;;;2.53;2.20;;;;;;;9.86;56.04;95617.09;1739935;81;21182;-62
2021/04/21 09:23:03;;;;;;;3.87;3.10;;;;;;;9.90;55.85;95604.27;1740041;82;21177;-62
2021/04/21 09:25:35;;;;;;;2.90;2.55;;;;;;;10.07;56.70;95601.38;1740339;82;21256;-62
2021/04/21 09:28:05;;;;;;;3.33;2.60;;;;;;;10.22;56.25;95601.11;1740299;82;21575;-62
2021/04/21 09:30:36;;;;;;;1.83;1.73;;;;;;;10.30;54.02;95601.88;1740374;82;21137;-62
2021/04/21 09:33:05;;;;;;;2.87;1.70;;;;;;;10.39;55.08;95607.00;1740173;81;21206;-62
2021/04/21 09:35:43;;;;;;;2.97;2.20;;;;;;;10.43;53.30;95605.16;1739928;82;21292;-62
2021/04/21 09:38:16;;;;;;;2.40;2.20;;;;;;;10.58;53.15;95609.30;1740322;82;21083;-62
2021/04/21 09:40:53;;;;;;;1.98;1.77;;;;;;;10.73;52.41;95604.19;1740471;82;21162;-62
2021/04/21 09:43:28;;;;;;;2.20;2.00;;;;;;;10.79;51.32;95604.95;1740186;82;21698;-62
2021/04/21 09:46:00;;;;;;;19.47;10.63;;;;;;;10.93;50.70;95615.22;1740352;82;21260;-62
2021/04/21 09:48:35;;;;;;;4.90;2.87;;;;;;;11.04;49.96;95621.17;1739573;82;21288;-62
2021/04/21 09:51:09;;;;;;;3.73;2.47;;;;;;;11.07;48.45;95618.92;1740354;82;21308;-62
2021/04/21 09:53:44;;;;;;;2.20;2.00;;;;;;;11.25;47.54;95624.28;1740145;82;21560;-62
2021/04/21 09:56:24;;;;;;;3.60;3.03;;;;;;;11.53;47.61;95619.73;1739935;82;21260;-62
2021/04/21 09:58:55;;;;;;;6.43;3.97;;;;;;;11.81;46.73;95627.45;1740247;82;21702;-62
2021/04/21 10:01:32;;;;;;;3.67;2.90;;;;;;;12.04;48.43;95620.79;1740445;82;21172;-62
2021/04/21 10:04:12;;;;;;;3.40;3.10;;;;;;;12.15;46.10;95619.23;1740165;82;21248;-62
2021/04/21 10:06:49;;;;;;;3.90;3.37;;;;;;;12.32;48.43;95624.95;1740370;82;21731;-62
2021/04/21 10:09:38;;;;;;;6.47;4.40;;;;;;;12.52;48.10;95630.64;1739959;82;21134;-62
2021/04/21 10:12:22;;;;;;;5.53;4.47;;;;;;;12.53;49.56;95640.30;1740254;82;21706;-62
2021/04/21 10:15:10;;;;;;;5.27;4.27;;;;;;;12.47;51.52;95637.83;1739168;82;21275;-62
2021/04/21 10:17:41;;;;;;;6.80;3.93;;;;;;;12.47;53.91;95636.50;1740091;82;21687;-62
2021/04/21 10:20:18;;;;;;;4.87;4.37;;;;;;;12.37;53.08;95649.98;1740324;82;21591;-62
2021/04/21 10:22:46;;;;;;;5.83;4.50;;;;;;;12.40;54.57;95637.56;1740131;82;21690;-62
2021/04/21 10:25:16;;;;;;;4.87;3.90;;;;;;;12.35;53.95;95646.06;1740325;82;21122;-62
2021/04/21 10:27:44;;;;;;;5.37;4.60;;;;;;;12.37;53.26;95640.72;1740343;82;21296;-62
2021/04/21 10:30:13;;;;;;;5.27;4.00;;;;;;;12.36;54.43;95641.63;1740022;82;21260;-62
2021/04/21 10:32:41;;;;;;;5.27;4.77;;;;;;;12.37;54.57;95649.98;1748020;81;21160;-62
2021/04/21 10:35:10;;;;;;;4.87;3.87;;;;;;;12.27;55.01;95648.00;1754443;82;21145;-62
2021/04/21 10:37:41;;;;;;;4.87;3.87;;;;;;;12.18;54.78;95650.89;1754221;82;21572;-62
2021/04/21 10:40:11;;;;;;;4.40;3.77;;;;;;;12.14;55.44;95652.72;1754066;81;21137;-62
2021/04/21 10:42:58;;;;;;;5.10;4.20;;;;;;;11.93;55.75;95660.71;1754336;81;21563;-62
2021/04/21 10:45:28;;;;;;;4.90;3.23;;;;;;;11.62;56.43;95663.14;1754130;82;21117;-62
2021/04/21 10:47:58;;;;;;;4.93;4.40;;;;;;;11.24;56.05;95673.60;1754341;82;21138;-62
2021/04/21 10:50:43;;;;;;;5.57;4.20;;;;;;;11.09;56.03;95665.98;1754321;82;21138;-62
2021/04/21 10:53:33;;;;;;;6.23;3.17;;;;;;;10.59;57.37;95680.52;1754200;82;21121;-62
2021/04/21 10:56:20;;;;;;;4.67;4.07;;;;;;;10.09;60.38;95693.17;1754261;82;21563;-62
2021/04/21 10:58:56;;;;;;;2.70;2.30;;;;;;;9.84;61.70;95698.80;1754202;82;21141;-62
2021/04/21 11:01:38;;;;;;;3.80;3.20;;;;;;;9.43;61.78;95692.78;1754126;82;21169;-62
2021/04/21 11:04:11;;;;;;;4.03;3.63;;;;;;;9.19;64.02;95678.13;1754377;82;21531;-62
2021/04/21 11:06:45;;;;;;;4.40;3.43;;;;;;;9.04;66.06;95665.56;1753830;82;21693;-62
2021/04/21 11:09:16;;;;;;;6.77;4.33;;;;;;;8.98;68.74;95661.70;1754104;82;21141;-62
2021/04/21 11:11:48;;;;;;;22.07;14.93;;;;;;;9.04;67.96;95660.30;1754187;82;21157;-63
2021/04/21 11:14:19;;;;;;;17.27;12.03;;;;;;;9.19;67.17;95657.94;1754306;82;21153;-62
2021/04/21 11:16:47;;;;;;;13.83;9.80;;;;;;;9.57;66.63;95646.48;1750211;82;21162;-62
2021/04/21 11:19:25;;;;;;;20.83;10.83;;;;;;;9.86;66.77;95649.58;1753995;82;21145;-62
2021/04/21 11:22:16;;;;;;;8.90;6.00;;;;;;;9.96;66.11;95649.86;1754138;82;21584;-62
2021/04/21 11:24:45;;;;;;;8.90;6.67;;;;;;;9.95;66.39;95658.67;1753952;82;21145;-62
2021/04/21 11:27:44;;;;;;;6.33;4.03;;;;;;;10.06;65.97;95662.91;1754232;81;21133;-62
2021/04/21 11:30:39;;;;;;;8.93;6.23;;;;;;;10.07;65.60;95668.59;1754093;82;21137;-62
2021/04/21 11:33:07;;;;;;;8.37;5.70;;;;;;;9.92;64.13;95667.92;1752125;81;21137;-62
2021/04/21 11:35:36;;;;;;;4.97;3.97;;;;;;;9.91;64.42;95677.19;1754269;82;21137;-62
2021/04/21 11:38:04;;;;;;;3.57;3.27;;;;;;;9.84;65.64;95676.39;1754208;82;21149;-62
2021/04/21 11:40:33;;;;;;;3.70;3.30;;;;;;;9.74;64.87;95679.61;1753901;81;21642;-62
2021/04/21 11:43:15;;;;;;;6.20;3.80;;;;;;;9.71;65.19;95680.97;1754168;82;21129;-62
2021/04/21 11:45:43;;;;;;;6.87;3.80;;;;;;;9.67;66.39;95677.08;1754201;82;21141;-62
2021/04/21 11:48:17;;;;;;;7.50;4.87;;;;;;;9.54;66.17;95681.19;1753998;82;21560;-62
2021/04/21 11:50:52;;;;;;;6.60;4.83;;;;;;;9.48;65.26;95689.19;1754210;81;21561;-62
2021/04/21 11:53:20;;;;;;;22.10;16.70;;;;;;;9.48;65.59;95687.00;1753680;82;21130;-63
2021/04/21 11:55:59;;;;;;;12.63;7.97;;;;;;;9.47;66.38;95690.52;1753985;82;21128;-62
2021/04/21 11:58:37;;;;;;;13.57;8.53;;;;;;;9.38;69.05;95693.28;1754292;82;21094;-62
2021/04/21 12:01:14;;;;;;;11.27;7.33;;;;;;;9.20;71.11;95692.61;1753940;82;21130;-62
2021/04/21 12:03:45;;;;;;;15.77;9.63;;;;;;;9.06;71.57;95701.09;1753881;81;21556;-62
2021/04/21 12:06:16;;;;;;;17.13;12.57;;;;;;;9.07;71.15;95699.77;1754106;82;21118;-62
2021/04/21 12:08:51;;;;;;;11.63;7.73;;;;;;;9.09;71.18;95699.73;1753990;82;21636;-62
2021/04/21 12:11:26;;;;;;;10.90;7.50;;;;;;;9.10;72.27;95697.10;1754080;82;21122;-62
2021/04/21 12:13:54;;;;;;;8.67;6.23;;;;;;;9.14;72.29;95704.50;1726876;82;21540;-62
2021/04/21 12:16:25;;;;;;;8.63;6.33;;;;;;;9.19;72.18;95715.85;1753894;82;21671;-62
2021/04/21 12:18:56;;;;;;;6.43;4.37;;;;;;;9.19;72.15;95716.30;1754095;82;21121;-62
2021/04/21 12:21:36;;;;;;;7.83;5.63;;;;;;;9.08;71.50;95722.56;1754145;81;21616;-62
2021/04/21 12:24:07;;;;;;;5.93;4.37;;;;;;;8.97;72.59;95723.13;1754051;81;21126;-62